Latest Weather Observations for Fawkner Beacon

IDV60801

Issued at 4:52 pm EDT Tuesday 10 December 2019 (issued every 10 minutes, with the page automatically refreshed every 10 minutes)

About weather observations | Map of weather stations | Latest weather observations for VIC | Other Formats
Station Details ID: 086376 Name: FAWKNER BEACON Lat: -37.95 Lon: 144.93 Height: 17.0 m
Data from the previous 72 hours. | See also: Recent months at Fawkner Beacon
Date/Time
EDT
Temp
°C
App
Temp
°C
Dew
Point
°C
Rel
Hum
%
Delta-T
°C
Wind Press
QNH
hPa
Press
MSL
hPa
Rain since
9am
mm
Dir  Spd
km/h
Gust
km/h
Spd
kts
Gust
kts
10/04:30pm - - - - - SSW 30 35 16 19 - - -
10/04:00pm - - - - - SSW 32 35 17 19 - - -
10/03:30pm - - - - - S 32 41 17 22 - - -
10/03:00pm - - - - - S 32 39 17 21 - - -
10/02:30pm - - - - - SSW 37 46 20 25 - - -
10/02:00pm - - - - - S 33 41 18 22 - - -
10/01:30pm - - - - - S 32 41 17 22 - - -
10/01:00pm - - - - - SSW 32 41 17 22 - - -
10/12:30pm - - - - - S 35 41 19 22 - - -
10/12:00pm - - - - - S 33 41 18 22 - - -
10/11:30am - - - - - S 33 41 18 22 - - -
10/11:00am - - - - - S 32 39 17 21 - - -
10/10:30am - - - - - S 30 35 16 19 - - -
10/10:00am - - - - - SSW 33 41 18 22 - - -
10/09:30am - - - - - S 26 32 14 17 - - -
10/09:00am - - - - - S 28 32 15 17 - - -
10/08:30am - - - - - S 28 33 15 18 - - -
10/08:00am - - - - - S 28 33 15 18 - - -
10/07:30am - - - - - SSW 30 39 16 21 - - -
10/07:00am - - - - - S 35 41 19 22 - - -
10/06:30am - - - - - S 33 41 18 22 - - -
10/06:00am - - - - - S 32 35 17 19 - - -
10/05:30am - - - - - S 28 35 15 19 - - -
10/05:00am - - - - - S 32 35 17 19 - - -
10/04:30am - - - - - S 32 39 17 21 - - -
10/04:00am - - - - - S 26 30 14 16 - - -
10/03:30am - - - - - S 28 33 15 18 - - -
10/03:00am - - - - - S 28 33 15 18 - - -
10/02:30am - - - - - S 22 26 12 14 - - -
10/02:00am - - - - - SSE 24 30 13 16 - - -
10/01:30am - - - - - SSW 28 33 15 18 - - -
10/01:00am - - - - - S 26 32 14 17 - - -
10/12:30am - - - - - SSW 28 33 15 18 - - -
10/12:00am - - - - - S 26 33 14 18 - - -
 
Date/Time
EDT
Temp
°C
App
Temp
°C
Dew
Point
°C
Rel
Hum
%
Delta-T
°C
Wind Press
QNH
hPa
Press
MSL
hPa
Rain since
9am
mm
Dir  Spd
km/h
Gust
km/h
Spd
kts
Gust
kts
09/11:30pm - - - - - S 20 30 11 16 - - -
09/11:00pm - - - - - SSE 28 35 15 19 - - -
09/10:30pm - - - - - S 35 44 19 24 - - -
09/10:00pm - - - - - S 39 48 21 26 - - -
09/09:30pm - - - - - S 41 48 22 26 - - -
09/09:00pm - - - - - S 39 46 21 25 - - -
09/08:30pm - - - - - S 44 54 24 29 - - -
09/08:00pm - - - - - SSW 48 59 26 32 - - -
09/07:30pm - - - - - SSW 59 70 32 38 - - -
09/07:00pm - - - - - SSW 46 57 25 31 - - -
09/06:30pm - - - - - S 43 50 23 27 - - -
09/06:12pm - - - - - S 46 65 25 35 - - -
09/06:03pm - - - - - S 30 65 16 35 - - -
09/06:00pm - - - - - SE 19 57 10 31 - - -
09/05:58pm - - - - - ESE 11 46 6 25 - - -
09/05:30pm - - - - - E 7 9 4 5 - - -
09/05:00pm - - - - - SSE 6 7 3 4 - - -
09/04:30pm - - - - - SSW 15 22 8 12 - - -
09/04:00pm - - - - - SW 11 17 6 9 - - -
09/03:30pm - - - - - N 17 24 9 13 - - -
09/03:00pm - - - - - N 24 30 13 16 - - -
09/02:30pm - - - - - N 28 33 15 18 - - -
09/02:00pm - - - - - NNW 26 32 14 17 - - -
09/01:30pm - - - - - N 30 39 16 21 - - -
09/01:00pm - - - - - N 32 35 17 19 - - -
09/12:30pm - - - - - N 41 46 22 25 - - -
09/12:00pm - - - - - N 41 46 22 25 - - -
09/11:30am - - - - - N 35 43 19 23 - - -
09/11:00am - - - - - N 41 46 22 25 - - -
09/10:30am - - - - - N 44 52 24 28 - - -
09/10:00am - - - - - N 44 48 24 26 - - -
09/09:30am - - - - - N 32 44 17 24 - - -
09/09:29am - - - - - N 28 44 15 24 - - -
09/09:00am - - - - - N 19 22 10 12 - - -
09/08:30am - - - - - N 22 24 12 13 - - -
09/08:00am - - - - - N 22 26 12 14 - - -
09/07:30am - - - - - N 17 22 9 12 - - -
09/07:00am - - - - - NNE 24 28 13 15 - - -
09/06:30am - - - - - N 24 26 13 14 - - -
09/06:00am - - - - - N 19 22 10 12 - - -
09/05:30am - - - - - NNE 22 26 12 14 - - -
09/05:00am - - - - - NNE 22 24 12 13 - - -
09/04:30am - - - - - NNE 20 22 11 12 - - -
09/04:00am - - - - - NNE 15 17 8 9 - - -
09/03:30am - - - - - ENE 9 11 5 6 - - -
09/03:00am - - - - - NNE 4 7 2 4 - - -
09/02:30am - - - - - CALM 0 4 0 2 - - -
09/02:00am - - - - - NNW 6 7 3 4 - - -
09/01:30am - - - - - NW 6 7 3 4 - - -
09/01:00am - - - - - NW 9 11 5 6 - - -
09/12:30am - - - - - N 9 11 5 6 - - -
09/12:00am - - - - - ENE 7 9 4 5 - - -
 
Date/Time
EDT
Temp
°C
App
Temp
°C
Dew
Point
°C
Rel
Hum
%
Delta-T
°C
Wind Press
QNH
hPa
Press
MSL
hPa
Rain since
9am
mm
Dir  Spd
km/h
Gust
km/h
Spd
kts
Gust
kts
08/11:30pm - - - - - NE 6 6 3 3 - - -
08/11:00pm - - - - - E 9 11 5 6 - - -
08/10:30pm - - - - - E 19 20 10 11 - - -
08/10:00pm - - - - - E 19 26 10 14 - - -
08/09:30pm - - - - - ESE 22 24 12 13 - - -
08/09:00pm - - - - - SE 22 26 12 14 - - -
08/08:30pm - - - - - SE 24 28 13 15 - - -
08/08:00pm - - - - - SE 26 28 14 15 - - -
08/07:30pm - - - - - SE 28 30 15 16 - - -
08/07:00pm - - - - - SSE 24 28 13 15 - - -
08/06:30pm - - - - - SSE 24 28 13 15 - - -
08/06:00pm - - - - - S 24 28 13 15 - - -
08/05:30pm - - - - - S 24 28 13 15 - - -
08/05:00pm - - - - - S 26 30 14 16 - - -
08/04:30pm - - - - - S 26 28 14 15 - - -
08/04:00pm - - - - - S 24 28 13 15 - - -
08/03:30pm - - - - - S 24 28 13 15 - - -
08/03:00pm - - - - - S 22 26 12 14 - - -
08/02:30pm - - - - - S 24 28 13 15 - - -
08/02:00pm - - - - - S 24 28 13 15 - - -
08/01:30pm - - - - - S 22 26 12 14 - - -
08/01:00pm - - - - - S 19 22 10 12 - - -
08/12:30pm - - - - - SSW 17 22 9 12 - - -
08/12:00pm - - - - - S 17 20 9 11 - - -
08/11:30am - - - - - SSE 15 20 8 11 - - -
08/11:00am - - - - - SSE 15 20 8 11 - - -
08/10:30am - - - - - SE 13 17 7 9 - - -
08/10:00am - - - - - SE 11 15 6 8 - - -
08/09:30am - - - - - SE 13 17 7 9 - - -
08/09:00am - - - - - SSE 9 15 5 8 - - -
08/08:30am - - - - - SE 13 22 7 12 - - -
08/08:00am - - - - - ESE 9 15 5 8 - - -
08/07:30am - - - - - E 11 15 6 8 - - -
08/07:00am - - - - - E 15 20 8 11 - - -
08/06:30am - - - - - ENE 13 17 7 9 - - -
08/06:00am - - - - - ESE 11 17 6 9 - - -
08/05:30am - - - - - ESE 9 13 5 7 - - -
08/05:00am - - - - - S 6 9 3 5 - - -
08/04:30am - - - - - SSE 11 15 6 8 - - -
08/04:00am - - - - - S 9 15 5 8 - - -
08/03:30am - - - - - SSW 13 20 7 11 - - -
08/03:00am - - - - - S 15 22 8 12 - - -
08/02:30am - - - - - S 17 22 9 12 - - -
08/02:00am - - - - - SSW 15 20 8 11 - - -
08/01:30am - - - - - S 13 17 7 9 - - -
08/01:00am - - - - - S 9 13 5 7 - - -
08/12:30am - - - - - S 13 17 7 9 - - -
08/12:00am - - - - - S 13 17 7 9 - - -
 
Date/Time
EDT
Temp
°C
App
Temp
°C
Dew
Point
°C
Rel
Hum
%
Delta-T
°C
Wind Press
QNH
hPa
Press
MSL
hPa
Rain since
9am
mm
Dir  Spd
km/h
Gust
km/h
Spd
kts
Gust
kts
07/11:30pm - - - - - S 13 15 7 8 - - -
07/11:00pm - - - - - S 13 17 7 9 - - -
07/10:30pm - - - - - S 15 20 8 11 - - -
07/10:00pm - - - - - SSE 20 24 11 13 - - -
07/09:30pm - - - - - SSE 24 32 13 17 - - -
07/09:00pm - - - - - S 28 33 15 18 - - -
07/08:30pm - - - - - SSE 28 33 15 18 - - -
07/08:00pm - - - - - SSE 33 43 18 23 - - -
07/07:30pm - - - - - SSE 33 41 18 22 - - -
07/07:00pm - - - - - S 37 43 20 23 - - -
07/06:30pm - - - - - S 35 43 19 23 - - -
07/06:00pm - - - - - SSE 35 43 19 23 - - -
07/05:30pm - - - - - S 35 41 19 22 - - -
07/05:00pm - - - - - S 33 39 18 21 - - -

Other formats

Comma delimited format used in spreadsheet applications
http://www.bom.gov.au/fwo/IDV60801/IDV60801.95872.axf

JavaScript Object Notation format (JSON) in row-major order
http://www.bom.gov.au/fwo/IDV60801/IDV60801.95872.json

Data quality

Most of these data are generated automatically and are frequently updated. Quality checks on data are not normally performed. It is possible for incorrect values to appear. Refer to information at About Latest Weather Observations and please check the disclaimer before using these data.